createdAt,value
2023-01-01T00:03:19.954Z,14.02
2023-01-01T00:06:38.819Z,13.74
2023-01-01T00:12:52.858Z,13.35
2023-01-01T00:15:30.340Z,13.28
2023-01-01T00:18:14.462Z,13.22
2023-01-01T00:20:52.624Z,13.17
2023-01-01T00:23:46.607Z,13.13
2023-01-01T00:29:34.892Z,12.95
2023-01-01T00:32:16.412Z,13.04
2023-01-01T00:34:47.677Z,13.04
2023-01-01T00:37:32.638Z,13.00
2023-01-01T00:40:07.560Z,12.94
2023-01-01T00:43:09.404Z,12.97
2023-01-01T00:45:57.168Z,12.89
2023-01-01T00:51:21.722Z,12.92
2023-01-01T00:54:16.825Z,12.81
2023-01-01T00:56:57.796Z,12.77
2023-01-01T00:59:50.983Z,12.84
2023-01-01T01:02:39.910Z,12.84
2023-01-01T01:05:17.080Z,12.83
2023-01-01T01:07:56.872Z,12.85
2023-01-01T01:10:26.852Z,12.86
2023-01-01T01:15:56.081Z,12.93
2023-01-01T01:18:30.355Z,12.92
2023-01-01T01:21:16.257Z,12.94
2023-01-01T01:23:56.163Z,12.91
2023-01-01T01:26:46.972Z,13.09
2023-01-01T01:29:33.355Z,13.08
2023-01-01T01:32:10.625Z,13.22
2023-01-01T01:34:49.305Z,13.21
2023-01-01T01:37:25.235Z,13.26
2023-01-01T01:40:01.717Z,13.24
2023-01-01T01:42:50.257Z,13.14
2023-01-01T01:48:28.351Z,12.99
2023-01-01T01:51:07.810Z,13.02
2023-01-01T01:53:45.930Z,13.02
2023-01-01T01:56:23.290Z,13.00
2023-01-01T01:58:57.687Z,12.98
2023-01-01T02:01:41.491Z,12.96
2023-01-01T02:04:21.357Z,12.96
2023-01-01T02:07:04.518Z,12.96
2023-01-01T02:09:47.344Z,12.93
2023-01-01T02:15:21.735Z,12.95
2023-01-01T02:18:11.720Z,12.89
2023-01-01T02:21:12.189Z,12.92
2023-01-01T02:24:22.955Z,12.94
2023-01-01T02:27:24.381Z,12.93
2023-01-01T02:30:41.201Z,12.93
2023-01-01T02:33:38.613Z,12.93
2023-01-01T02:36:28.749Z,12.88
2023-01-01T02:39:08.418Z,12.94
2023-01-01T02:41:47.385Z,12.94
2023-01-01T02:44:22.403Z,12.91
2023-01-01T02:50:30.128Z,12.95
2023-01-01T02:53:31.079Z,12.94
2023-01-01T02:56:25.232Z,12.98
2023-01-01T02:59:31.863Z,13.00
2023-01-01T03:02:24.889Z,13.06
2023-01-01T03:05:26.859Z,13.09
2023-01-01T03:08:26.543Z,13.21
2023-01-01T03:11:14.553Z,13.30
2023-01-01T03:13:55.892Z,13.37
2023-01-01T03:16:34.952Z,13.36
2023-01-01T03:19:16.427Z,13.43
2023-01-01T03:22:10.500Z,13.38
2023-01-01T03:24:58.789Z,13.32
2023-01-01T03:27:49.916Z,13.49
2023-01-01T03:30:42.142Z,13.61
2023-01-01T03:33:50.731Z,13.81
2023-01-01T03:36:47.724Z,13.98
2023-01-01T03:39:38.831Z,14.14
2023-01-01T03:42:28.797Z,14.22
2023-01-01T03:45:12.228Z,14.30
2023-01-01T03:47:45.399Z,14.29
2023-01-01T03:51:00.556Z,14.37
2023-01-01T03:54:10.827Z,14.41
2023-01-01T03:57:04.142Z,14.37
2023-01-01T04:02:55.096Z,14.22
2023-01-01T04:05:31.967Z,14.22
2023-01-01T04:08:22.698Z,14.18
2023-01-01T04:11:38.695Z,14.25
2023-01-01T04:14:23.009Z,14.23
2023-01-01T04:16:56.941Z,14.09
2023-01-01T04:22:42.947Z,13.88
2023-01-01T04:25:20.496Z,13.81
2023-01-01T04:28:22.448Z,13.71
2023-01-01T04:33:45.568Z,13.27
2023-01-01T04:36:36.013Z,13.12
2023-01-01T04:39:12.043Z,12.98
2023-01-01T04:42:05.519Z,12.93
2023-01-01T04:45:00.694Z,12.98
2023-01-01T04:47:41.195Z,12.94
2023-01-01T04:50:17.288Z,12.91
2023-01-01T04:53:10.581Z,12.84
2023-01-01T04:55:41.752Z,12.75
2023-01-01T04:58:26.961Z,12.81
2023-01-01T05:01:10.293Z,12.73
2023-01-01T05:04:02.738Z,12.69
2023-01-01T05:09:46.915Z,12.72
2023-01-01T05:17:11.682Z,12.65
2023-01-01T05:19:58.225Z,12.61
2023-01-01T05:22:32.959Z,12.66
2023-01-01T05:25:11.410Z,12.64
2023-01-01T05:27:51.675Z,12.66
2023-01-01T05:30:29.992Z,12.68
2023-01-01T05:33:31.295Z,12.63
2023-01-01T05:36:13.107Z,12.62
2023-01-01T05:39:01.967Z,12.61
2023-01-01T05:41:51.972Z,12.60
2023-01-01T05:44:28.497Z,12.58
2023-01-01T05:52:57.415Z,12.51
2023-01-01T05:55:39.442Z,12.64
2023-01-01T05:58:42.073Z,12.68
2023-01-01T06:01:27.026Z,12.77
2023-01-01T06:04:06.406Z,12.85
2023-01-01T06:06:44.853Z,12.87
2023-01-01T06:09:19.569Z,12.90
2023-01-01T06:11:59.247Z,12.98
2023-01-01T06:14:46.305Z,13.05
2023-01-01T06:17:19.951Z,13.13
2023-01-01T06:20:02.742Z,13.16
2023-01-01T06:22:44.806Z,13.34
2023-01-01T06:25:36.823Z,13.44
2023-01-01T06:28:13.902Z,13.43
2023-01-01T06:30:48.986Z,13.45
2023-01-01T06:33:21.424Z,13.52
2023-01-01T06:39:05.619Z,13.57
2023-01-01T06:41:56.166Z,13.49
2023-01-01T06:44:33.109Z,13.49
2023-01-01T06:47:04.964Z,13.55
2023-01-01T06:49:46.438Z,13.52
2023-01-01T06:52:24.674Z,13.56
2023-01-01T06:55:04.001Z,13.56
2023-01-01T06:58:01.007Z,13.51
2023-01-01T07:00:37.722Z,13.53
2023-01-01T07:03:14.051Z,13.51
2023-01-01T07:06:02.140Z,13.43
2023-01-01T07:08:37.055Z,13.44
2023-01-01T07:11:24.206Z,13.39
2023-01-01T07:14:01.068Z,13.35
2023-01-01T07:16:39.857Z,13.38
2023-01-01T07:19:18.963Z,13.35
2023-01-01T07:22:04.175Z,13.31
2023-01-01T07:27:33.112Z,13.24
2023-01-01T07:30:10.370Z,13.29
2023-01-01T07:32:55.289Z,13.29
2023-01-01T07:35:46.382Z,13.27
2023-01-01T07:38:17.917Z,13.25
2023-01-01T07:40:50.994Z,13.21
2023-01-01T07:43:39.000Z,13.20
2023-01-01T07:46:37.441Z,13.21
2023-01-01T07:49:23.625Z,13.20
2023-01-01T07:52:04.626Z,13.18
2023-01-01T07:57:41.761Z,13.09
2023-01-01T08:00:24.038Z,13.01
2023-01-01T08:03:05.166Z,13.06
2023-01-01T08:05:50.704Z,13.04
2023-01-01T08:08:35.044Z,13.01
2023-01-01T08:11:07.999Z,12.97
2023-01-01T08:13:45.463Z,12.99
2023-01-01T08:16:40.517Z,13.01
2023-01-01T08:19:35.993Z,12.99
2023-01-01T08:22:23.278Z,12.99
2023-01-01T08:24:59.477Z,12.99
2023-01-01T08:27:37.382Z,12.91
2023-01-01T08:33:37.183Z,12.89
2023-01-01T08:36:40.288Z,12.98
2023-01-01T08:39:27.422Z,12.90
2023-01-01T08:42:15.315Z,13.03
2023-01-01T08:44:55.749Z,13.06
2023-01-01T08:50:36.935Z,13.07
2023-01-01T08:53:14.358Z,13.07
2023-01-01T08:55:47.805Z,13.04
2023-01-01T08:58:36.075Z,13.04
2023-01-01T09:01:09.338Z,13.04
2023-01-01T09:03:58.765Z,12.97
2023-01-01T09:07:03.556Z,13.05
2023-01-01T09:09:46.563Z,13.04
2023-01-01T09:12:22.537Z,13.05
2023-01-01T09:14:56.867Z,13.07
2023-01-01T09:17:30.460Z,12.96
2023-01-01T09:23:22.875Z,13.08
2023-01-01T09:28:58.873Z,13.13
2023-01-01T09:31:42.881Z,13.14
2023-01-01T09:37:07.381Z,13.04
2023-01-01T09:39:54.088Z,13.05
2023-01-01T09:42:44.016Z,13.11
2023-01-01T09:45:36.699Z,13.11
2023-01-01T09:48:22.108Z,13.12
2023-01-01T09:51:01.833Z,13.07
2023-01-01T09:53:41.686Z,13.10
2023-01-01T09:59:31.190Z,13.09
2023-01-01T10:02:59.097Z,13.20
2023-01-01T10:05:57.968Z,13.21
2023-01-01T10:08:51.997Z,13.13
2023-01-01T10:11:34.081Z,13.19
2023-01-01T10:17:25.713Z,13.17
2023-01-01T10:23:13.960Z,13.04
2023-01-01T10:25:53.710Z,13.04
2023-01-01T10:28:39.747Z,12.98
2023-01-01T10:31:44.261Z,13.02
2023-01-01T10:37:18.899Z,13.01
2023-01-01T10:40:21.563Z,12.96
2023-01-01T10:43:01.440Z,12.87
2023-01-01T10:45:38.634Z,12.92
2023-01-01T10:48:31.894Z,12.89
2023-01-01T10:51:34.147Z,12.84
2023-01-01T10:54:14.267Z,12.77
2023-01-01T10:56:52.391Z,12.71
2023-01-01T11:00:06.522Z,12.77
2023-01-01T11:02:54.981Z,12.72
2023-01-01T11:05:26.335Z,12.83
2023-01-01T11:11:14.795Z,12.77
2023-01-01T11:14:03.110Z,12.79
2023-01-01T11:16:43.489Z,12.86
2023-01-01T11:19:38.283Z,12.94
2023-01-01T11:22:22.919Z,12.94
2023-01-01T11:25:10.595Z,12.94
2023-01-01T11:27:41.174Z,12.99
2023-01-01T11:30:35.148Z,12.99
2023-01-01T11:33:21.709Z,12.96
2023-01-01T11:36:12.421Z,12.97
2023-01-01T11:38:55.593Z,13.02
2023-01-01T11:42:08.939Z,13.01
2023-01-01T11:45:00.619Z,13.04
2023-01-01T11:47:43.797Z,13.01
2023-01-01T11:51:03.435Z,13.10
2023-01-01T11:53:44.244Z,13.20
2023-01-01T11:56:36.293Z,13.11
2023-01-01T11:59:34.890Z,13.31
2023-01-01T12:02:17.996Z,13.20
2023-01-01T12:05:18.338Z,13.45
2023-01-01T12:08:04.943Z,13.50
2023-01-01T12:10:57.398Z,13.61
2023-01-01T12:13:49.025Z,13.59
2023-01-01T12:16:31.590Z,13.75
2023-01-01T12:19:39.030Z,13.81
2023-01-01T12:22:32.309Z,13.84
2023-01-01T12:28:22.260Z,13.87
2023-01-01T12:31:05.784Z,13.89
2023-01-01T12:34:12.188Z,13.86
2023-01-01T12:37:05.288Z,13.86
2023-01-01T12:41:02.967Z,13.82
2023-01-01T12:43:50.159Z,13.80
2023-01-01T12:47:02.295Z,13.81
2023-01-01T12:50:51.455Z,13.84
2023-01-01T12:53:43.469Z,13.90
2023-01-01T12:56:34.495Z,13.93
2023-01-01T12:59:25.220Z,13.91
2023-01-01T13:02:08.336Z,14.06
2023-01-01T13:05:00.035Z,14.07
2023-01-01T13:08:01.846Z,14.03
2023-01-01T13:10:51.339Z,14.00
2023-01-01T13:13:37.566Z,13.97
2023-01-01T13:19:11.910Z,14.04
2023-01-01T13:21:56.561Z,14.07
2023-01-01T13:24:34.678Z,13.98
2023-01-01T13:27:12.617Z,14.11
2023-01-01T13:29:58.822Z,14.06
2023-01-01T13:33:31.123Z,14.09
2023-01-01T13:36:59.419Z,14.03
2023-01-01T13:40:02.629Z,14.03
2023-01-01T13:46:13.373Z,13.95
2023-01-01T13:49:26.572Z,13.89
2023-01-01T13:52:55.236Z,13.84
2023-01-01T13:56:07.236Z,13.71
2023-01-01T14:00:16.186Z,13.68
2023-01-01T14:02:55.132Z,13.59
2023-01-01T14:05:39.280Z,13.62
2023-01-01T14:11:42.777Z,13.57
2023-01-01T14:14:24.716Z,13.44
2023-01-01T14:17:05.774Z,13.44
2023-01-01T14:20:05.021Z,13.44
2023-01-01T14:22:49.464Z,13.44
2023-01-01T14:25:30.703Z,13.36
2023-01-01T14:28:08.910Z,13.25
2023-01-01T14:31:10.900Z,13.30
2023-01-01T14:34:09.952Z,13.35
2023-01-01T14:37:07.081Z,13.21
2023-01-01T14:40:01.601Z,13.27
2023-01-01T14:42:53.887Z,13.25
2023-01-01T14:45:41.440Z,13.15
2023-01-01T14:48:22.481Z,13.05
2023-01-01T14:54:05.507Z,13.03
2023-01-01T14:56:45.249Z,13.00
2023-01-01T14:59:48.635Z,12.97
2023-01-01T15:02:40.545Z,12.91
2023-01-01T15:06:07.691Z,12.83
2023-01-01T15:08:42.902Z,12.69
2023-01-01T15:11:32.796Z,12.67
2023-01-01T15:14:15.440Z,12.69
2023-01-01T15:17:03.109Z,12.63
2023-01-01T15:19:42.458Z,12.56
2023-01-01T15:22:28.856Z,12.52
2023-01-01T15:25:10.899Z,12.48
2023-01-01T15:27:44.416Z,12.48
2023-01-01T15:30:40.960Z,12.44
2023-01-01T15:33:19.935Z,12.42
2023-01-01T15:36:03.420Z,12.28
2023-01-01T15:38:59.004Z,12.34
2023-01-01T15:41:55.201Z,12.29
2023-01-01T15:47:31.847Z,12.12
2023-01-01T15:50:27.252Z,12.03
2023-01-01T15:53:11.755Z,12.03
2023-01-01T15:56:34.738Z,11.98
2023-01-01T15:59:45.730Z,12.03
2023-01-01T16:02:59.089Z,11.93
2023-01-01T16:05:49.681Z,11.97
2023-01-01T16:08:29.827Z,12.02
2023-01-01T16:11:19.028Z,12.02
2023-01-01T16:13:59.734Z,12.03
2023-01-01T16:19:38.025Z,12.05
2023-01-01T16:25:14.220Z,11.98
2023-01-01T16:30:59.710Z,12.05
2023-01-01T16:36:51.024Z,11.97
2023-01-01T16:39:27.856Z,12.08
2023-01-01T16:42:07.384Z,12.02
2023-01-01T16:45:01.621Z,12.05
2023-01-01T16:48:01.492Z,12.05
2023-01-01T16:50:48.292Z,12.07
2023-01-01T16:53:27.960Z,12.09
2023-01-01T16:56:23.786Z,12.05
2023-01-01T16:59:03.269Z,12.01
2023-01-01T17:01:37.655Z,12.11
2023-01-01T17:04:12.776Z,12.10
2023-01-01T17:09:33.640Z,12.14
2023-01-01T17:12:25.176Z,12.08
2023-01-01T17:20:56.298Z,12.07
2023-01-01T17:23:52.800Z,12.04
2023-01-01T17:26:42.222Z,12.09
2023-01-01T17:29:19.902Z,12.11
2023-01-01T17:32:26.411Z,12.10
2023-01-01T17:35:11.687Z,12.02
2023-01-01T17:37:53.122Z,12.08
2023-01-01T17:40:33.526Z,12.16
2023-01-01T17:43:35.101Z,12.09
2023-01-01T17:46:27.065Z,12.20
2023-01-01T17:49:12.542Z,12.20
2023-01-01T17:52:00.592Z,12.21
2023-01-01T17:54:34.114Z,12.26
2023-01-01T17:57:10.163Z,12.29
2023-01-01T17:59:46.943Z,12.31
2023-01-01T18:02:31.305Z,12.30
2023-01-01T18:05:16.265Z,12.33
2023-01-01T18:07:54.909Z,12.33
2023-01-01T18:10:36.484Z,12.40
2023-01-01T18:13:08.326Z,12.43
2023-01-01T18:15:51.138Z,12.40
2023-01-01T18:18:34.957Z,12.43
2023-01-01T18:21:32.632Z,12.41
2023-01-01T18:24:03.771Z,12.43
2023-01-01T18:27:01.716Z,12.39
2023-01-01T18:29:55.769Z,12.46
2023-01-01T18:32:27.583Z,12.48
2023-01-01T18:35:14.422Z,12.50
2023-01-01T18:37:52.251Z,12.47
2023-01-01T18:43:51.548Z,12.53
2023-01-01T18:46:30.636Z,12.50
2023-01-01T18:49:16.863Z,12.49
2023-01-01T18:51:51.221Z,12.49
2023-01-01T18:54:25.785Z,12.44
2023-01-01T18:57:18.697Z,12.37
2023-01-01T19:00:39.806Z,12.35
2023-01-01T19:03:21.130Z,12.24
2023-01-01T19:06:01.390Z,12.20
2023-01-01T19:08:36.191Z,12.29
2023-01-01T19:14:29.291Z,12.17
2023-01-01T19:17:25.594Z,12.21
2023-01-01T19:20:17.788Z,12.18
2023-01-01T19:22:49.957Z,12.16
2023-01-01T19:29:04.057Z,12.08
2023-01-01T19:31:42.075Z,12.10
2023-01-01T19:34:16.238Z,12.08
2023-01-01T19:36:55.297Z,12.10
2023-01-01T19:39:43.428Z,12.02
2023-01-01T19:42:31.141Z,12.09
2023-01-01T19:45:38.804Z,12.01
2023-01-01T19:48:21.489Z,12.05
2023-01-01T19:51:16.662Z,12.01
2023-01-01T19:53:58.857Z,12.03
2023-01-01T19:56:33.962Z,12.00
2023-01-01T19:59:13.550Z,12.02
2023-01-01T20:02:17.652Z,11.94
2023-01-01T20:05:00.150Z,11.96
2023-01-01T20:07:32.569Z,12.01
2023-01-01T20:10:19.993Z,12.04
2023-01-01T20:13:12.267Z,11.98
2023-01-01T20:15:46.897Z,11.99
2023-01-01T20:21:36.948Z,12.06
2023-01-01T20:24:13.629Z,12.07
2023-01-01T20:27:00.453Z,12.02
2023-01-01T20:29:39.208Z,12.07
2023-01-01T20:32:33.226Z,12.06
2023-01-01T20:35:16.141Z,12.03
2023-01-01T20:37:50.406Z,12.04
2023-01-01T20:40:23.127Z,12.02
2023-01-01T20:43:03.481Z,12.08
2023-01-01T20:45:46.568Z,12.08
2023-01-01T20:48:20.112Z,12.01
2023-01-01T20:50:55.987Z,11.98
2023-01-01T20:53:57.255Z,12.00
2023-01-01T20:59:36.265Z,11.87
2023-01-01T21:02:11.779Z,11.76
2023-01-01T21:05:07.021Z,11.80
2023-01-01T21:08:30.707Z,11.71
2023-01-01T21:11:12.215Z,11.78
2023-01-01T21:13:43.958Z,11.74
2023-01-01T21:16:59.624Z,11.78
2023-01-01T21:19:38.561Z,11.75
2023-01-01T21:22:20.816Z,11.70
2023-01-01T21:25:24.008Z,11.71
2023-01-01T21:28:22.113Z,11.60
2023-01-01T21:31:05.864Z,11.68
2023-01-01T21:33:54.181Z,11.69
2023-01-01T21:36:42.695Z,11.61
2023-01-01T21:39:18.947Z,11.70
2023-01-01T21:42:48.728Z,11.67
2023-01-01T21:45:40.039Z,11.57
2023-01-01T21:48:17.081Z,11.57
2023-01-01T21:51:09.904Z,11.60
2023-01-01T21:53:58.875Z,11.59
2023-01-01T21:56:48.257Z,11.60
2023-01-01T21:59:51.768Z,11.52
2023-01-01T22:03:56.650Z,11.44
2023-01-01T22:06:58.282Z,11.49
2023-01-01T22:09:33.249Z,11.52
2023-01-01T22:12:20.084Z,11.52
2023-01-01T22:14:55.588Z,11.51
2023-01-01T22:17:35.036Z,11.57
2023-01-01T22:20:21.828Z,11.55
2023-01-01T22:22:53.879Z,11.51
2023-01-01T22:25:31.011Z,11.52
2023-01-01T22:28:00.783Z,11.53
2023-01-01T22:30:46.309Z,11.54
2023-01-01T22:33:36.606Z,11.48
2023-01-01T22:36:14.431Z,11.54
2023-01-01T22:38:57.399Z,11.44
2023-01-01T22:41:27.323Z,11.51
2023-01-01T22:44:05.333Z,11.58
2023-01-01T22:46:41.371Z,11.58
2023-01-01T22:49:27.991Z,11.50
2023-01-01T22:52:04.278Z,11.56
2023-01-01T22:54:34.053Z,11.57
2023-01-01T22:57:04.013Z,11.54
2023-01-01T22:59:35.169Z,11.47
2023-01-01T23:02:08.374Z,11.54
2023-01-01T23:04:47.816Z,11.57
2023-01-01T23:07:19.297Z,11.57
2023-01-01T23:09:47.961Z,11.58
2023-01-01T23:12:17.602Z,11.51
2023-01-01T23:15:04.258Z,11.51
2023-01-01T23:17:40.464Z,11.59
2023-01-01T23:22:59.781Z,11.58
2023-01-01T23:28:17.728Z,11.58
2023-01-01T23:30:46.876Z,11.57
2023-01-01T23:33:23.721Z,11.59
2023-01-01T23:38:41.196Z,11.57
2023-01-01T23:41:24.565Z,11.54
2023-01-01T23:43:53.054Z,11.55
2023-01-01T23:49:09.818Z,11.60
2023-01-01T23:51:41.006Z,11.60
2023-01-01T23:54:09.486Z,11.65
2023-01-01T23:56:38.222Z,11.60
2023-01-01T23:59:13.537Z,11.63
